Time;durP1;ratioP1;P1;durP2;ratioP2;P2;SDS_P1;SDS_P2;PMS_P1;PMS_P2;Temp;Humidity;BMP_temperature;BMP_pressure;BME280_temperature;BME280_humidity;BME280_pressure;Samples;Min_cycle;Max_cycle;Signal;HPM_P1;HPM_P2
2023/10/03 00:00:32;;;;;;;;;10.60;10.60;;;;;21.16;61.55;99526.53;5117889;28;8835;-60
2023/10/03 00:03:00;;;;;;;;;13.60;13.20;;;;;21.19;61.50;99518.03;5118653;28;8856;-58
2023/10/03 00:05:31;;;;;;;;;14.80;13.00;;;;;21.21;61.16;99515.94;5114286;28;8806;-58
2023/10/03 00:07:59;;;;;;;;;13.00;11.60;;;;;21.21;61.48;99503.25;5097968;28;8852;-58
2023/10/03 00:10:28;;;;;;;;;13.80;13.00;;;;;21.23;61.50;99500.31;5098731;28;8810;-57
2023/10/03 00:12:55;;;;;;;;;13.60;11.60;;;;;21.24;61.07;99493.84;5098206;28;8822;-58
2023/10/03 00:15:23;;;;;;;;;15.00;14.40;;;;;21.27;61.01;99490.78;5102012;28;8806;-58
2023/10/03 00:17:51;;;;;;;;;12.40;11.60;;;;;21.28;60.99;99495.16;5097838;28;8963;-58
2023/10/03 00:20:19;;;;;;;;;18.00;15.80;;;;;21.28;61.49;99496.00;5098107;28;8818;-59
2023/10/03 00:22:47;;;;;;;;;12.60;12.00;;;;;21.33;61.19;99490.78;5098596;28;8842;-57
2023/10/03 00:25:18;;;;;;;;;14.80;12.20;;;;;21.40;61.06;99485.41;5097997;28;8834;-57
2023/10/03 00:27:46;;;;;;;;;14.40;14.40;;;;;21.42;61.24;99477.91;5098406;28;8846;-58
2023/10/03 00:30:14;;;;;;;;;17.40;16.80;;;;;21.43;60.78;99475.00;5097901;28;8830;-58
2023/10/03 00:32:42;;;;;;;;;14.20;12.40;;;;;21.47;60.82;99487.09;5097554;28;8813;-58
2023/10/03 00:35:11;;;;;;;;;14.40;11.20;;;;;21.51;60.37;99468.56;5098421;28;8844;-58
2023/10/03 00:37:39;;;;;;;;;14.00;14.00;;;;;21.53;60.66;99467.31;5098155;28;9502;-58
2023/10/03 00:40:16;;;;;;;;;16.40;11.80;;;;;21.54;60.49;99460.00;5097872;28;8841;-58
2023/10/03 00:42:44;;;;;;;;;14.20;13.00;;;;;21.54;60.72;99446.47;5098361;28;9588;-58
2023/10/03 00:45:13;;;;;;;;;11.80;10.60;;;;;21.53;60.48;99463.78;5097587;28;8865;-58
2023/10/03 00:47:42;;;;;;;;;14.00;14.00;;;;;21.58;60.61;99447.75;5097159;28;8841;-58
2023/10/03 00:50:09;;;;;;;;;16.00;11.60;;;;;21.62;60.22;99438.16;5097010;28;8844;-57
2023/10/03 00:52:38;;;;;;;;;12.00;10.60;;;;;21.65;59.92;99438.59;5097750;28;8848;-57
2023/10/03 00:55:06;;;;;;;;;14.00;13.60;;;;;21.66;60.37;99432.19;5097635;28;8809;-58
2023/10/03 00:57:34;;;;;;;;;11.40;9.40;;;;;21.66;59.86;99423.19;5097900;28;8868;-57
2023/10/03 01:00:05;;;;;;;;;17.20;15.00;;;;;21.66;60.42;99431.31;5097801;28;9416;-58
2023/10/03 01:02:33;;;;;;;;;17.20;15.80;;;;;21.65;60.25;99426.91;5097495;28;8833;-58
2023/10/03 01:05:03;;;;;;;;;14.60;12.00;;;;;21.63;60.17;99421.69;5097091;28;8831;-58
2023/10/03 01:07:31;;;;;;;;;13.80;12.00;;;;;21.66;60.48;99423.19;5096935;28;8849;-58
2023/10/03 01:09:59;;;;;;;;;14.40;12.60;;;;;21.66;60.14;99420.47;5080252;28;8812;-57
2023/10/03 01:12:29;;;;;;;;;7.40;7.00;;;;;21.65;60.46;99418.78;5076727;28;8824;-58
2023/10/03 01:14:56;;;;;;;;;16.00;15.20;;;;;21.64;60.26;99408.97;5077119;28;8836;-57
2023/10/03 01:17:26;;;;;;;;;11.00;8.20;;;;;21.65;59.97;99425.06;5077373;28;8828;-57
2023/10/03 01:19:54;;;;;;;;;12.80;11.60;;;;;21.65;60.25;99416.91;5061952;28;8937;-56
2023/10/03 01:22:26;;;;;;;;;8.20;6.00;;;;;21.66;60.08;99412.34;5084099;28;8899;-58
2023/10/03 01:24:55;;;;;;;;;15.40;14.00;;;;;21.66;60.52;99401.50;5095425;28;8922;-57
2023/10/03 01:27:22;;;;;;;;;14.00;12.40;;;;;21.64;60.09;99404.38;5076555;28;8948;-58
2023/10/03 01:29:50;;;;;;;;;14.80;13.40;;;;;21.64;60.38;99404.38;5076386;28;8820;-57
2023/10/03 01:32:18;;;;;;;;;15.20;15.00;;;;;21.64;60.40;99390.81;5077145;28;8835;-58
2023/10/03 01:34:48;;;;;;;;;11.60;11.00;;;;;21.65;60.04;99397.09;5076474;28;8842;-57
2023/10/03 01:37:15;;;;;;;;;13.60;12.00;;;;;21.66;60.50;99401.50;5078865;28;8832;-57
2023/10/03 01:39:43;;;;;;;;;12.00;11.00;;;;;21.65;60.49;99388.97;5096458;28;8837;-57
2023/10/03 01:42:10;;;;;;;;;13.20;11.60;;;;;21.62;60.14;99384.78;5097065;28;8825;-58
2023/10/03 01:44:38;;;;;;;;;15.00;14.00;;;;;21.63;60.63;99385.63;5096348;28;8849;-58
2023/10/03 01:47:07;;;;;;;;;5.00;3.20;;;;;21.62;60.38;99373.94;5096953;28;8860;-57
2023/10/03 01:49:35;;;;;;;;;13.40;12.20;;;;;21.61;60.57;99368.72;5096200;28;8872;-57
2023/10/03 01:52:03;;;;;;;;;16.60;15.00;;;;;21.60;60.10;99362.47;5096171;28;8853;-57
2023/10/03 01:54:31;;;;;;;;;12.00;11.80;;;;;21.60;60.14;99361.63;5096250;28;8825;-57
2023/10/03 01:57:00;;;;;;;;;11.00;9.00;;;;;21.60;60.45;99350.78;5096034;28;8857;-57
2023/10/03 01:59:29;;;;;;;;;15.60;13.20;;;;;21.59;60.18;99352.69;5096090;28;8821;-58
2023/10/03 02:01:56;;;;;;;;;12.00;10.80;;;;;21.58;60.16;99342.88;5096397;28;9496;-58
2023/10/03 02:04:28;;;;;;;;;14.40;13.80;;;;;21.56;60.41;99342.22;5096705;28;8837;-58
2023/10/03 02:06:56;;;;;;;;;14.00;12.20;;;;;21.55;60.66;99339.75;5096175;28;8836;-58
2023/10/03 02:09:24;;;;;;;;;12.20;12.00;;;;;21.54;60.44;99338.06;5096185;28;8974;-58
2023/10/03 02:11:51;;;;;;;;;9.20;8.40;;;;;21.54;60.61;99332.63;5095678;28;8848;-57
2023/10/03 02:14:19;;;;;;;;;6.20;5.00;;;;;21.51;60.34;99323.06;5095571;28;8816;-58
2023/10/03 02:16:49;;;;;;;;;12.20;11.20;;;;;21.52;60.92;99318.47;5095752;28;8968;-58
2023/10/03 02:19:17;;;;;;;;;11.00;10.80;;;;;21.50;60.30;99309.72;5096130;28;8844;-58
2023/10/03 02:21:46;;;;;;;;;15.00;10.20;;;;;21.47;60.47;99307.41;5101390;28;8930;-58
2023/10/03 02:24:13;;;;;;;;;12.60;11.60;;;;;21.44;60.99;99311.38;5101029;28;8837;-58
2023/10/03 02:26:41;;;;;;;;;17.40;14.00;;;;;21.44;60.51;99311.38;5095655;28;8838;-58
2023/10/03 02:29:10;;;;;;;;;13.40;11.20;;;;;21.43;60.55;99304.31;5095091;28;8855;-58
2023/10/03 02:31:38;;;;;;;;;11.40;9.80;;;;;21.42;60.57;99299.06;5095071;28;8829;-59
2023/10/03 02:34:07;;;;;;;;;15.00;14.20;;;;;21.42;60.78;99299.06;5095588;28;8947;-58
2023/10/03 02:36:35;;;;;;;;;8.60;8.20;;;;;21.41;60.88;99294.72;5095434;28;8971;-57
2023/10/03 02:39:06;;;;;;;;;14.20;13.20;;;;;21.41;60.89;99264.91;5095693;28;8825;-58
2023/10/03 02:41:34;;;;;;;;;7.80;7.40;;;;;21.40;60.48;99228.00;5095181;28;8822;-58
2023/10/03 02:44:02;;;;;;;;;11.40;11.00;;;;;21.41;61.08;99249.47;5095616;28;9507;-58
2023/10/03 02:46:30;;;;;;;;;13.20;11.80;;;;;21.45;60.43;99244.47;5094994;28;8854;-58
2023/10/03 02:48:58;;;;;;;;;11.40;10.60;;;;;21.48;60.31;99238.63;5095415;28;9656;-58
2023/10/03 02:51:25;;;;;;;;;9.00;8.40;;;;;21.50;60.17;99234.66;5094665;28;8964;-60
2023/10/03 02:53:53;;;;;;;;;8.80;8.20;;;;;21.54;60.50;99238.63;5096030;28;8841;-57
2023/10/03 02:56:22;;;;;;;;;11.40;9.60;;;;;21.59;60.27;99235.28;5095157;28;8932;-58
2023/10/03 02:58:50;;;;;;;;;12.00;10.60;;;;;21.60;60.48;99226.97;5095765;28;8841;-58
2023/10/03 03:01:18;;;;;;;;;11.20;11.20;;;;;21.61;60.10;99231.34;5094988;28;8826;-58
2023/10/03 03:03:46;;;;;;;;;11.40;11.00;;;;;21.62;60.46;99224.03;5095583;28;9495;-58
2023/10/03 03:06:14;;;;;;;;;12.00;10.60;;;;;21.64;60.00;99219.25;5095600;28;8830;-58
2023/10/03 03:08:44;;;;;;;;;11.80;10.80;;;;;21.67;59.85;99221.56;5095480;28;8844;-58
2023/10/03 03:11:12;;;;;;;;;11.20;10.20;;;;;21.68;60.33;99220.50;5094914;28;8818;-56
2023/10/03 03:13:39;;;;;;;;;12.20;10.40;;;;;21.66;59.79;99190.06;5094698;28;8818;-57
2023/10/03 03:16:11;;;;;;;;;4.80;4.20;;;;;21.69;59.82;99195.06;5095198;28;8875;-58
2023/10/03 03:18:40;;;;;;;;;7.40;7.40;;;;;21.72;60.26;99189.25;5094586;28;8844;-58
2023/10/03 03:21:10;;;;;;;;;13.40;10.80;;;;;21.80;59.76;99189.00;5095144;28;8833;-58
2023/10/03 03:23:42;;;;;;;;;8.00;7.00;;;;;21.86;59.79;99188.16;5105505;28;8934;-58
2023/10/03 03:26:20;;;;;;;;;7.00;7.00;;;;;21.93;59.37;99181.66;5098406;28;8814;-58
2023/10/03 03:28:49;;;;;;;;;10.20;9.40;;;;;21.96;59.42;99181.25;5095675;28;8843;-58
2023/10/03 03:31:25;;;;;;;;;13.40;12.00;;;;;21.99;59.35;99180.81;5098953;28;8808;-58
2023/10/03 03:33:56;;;;;;;;;11.60;10.60;;;;;22.05;59.05;99176.41;5096573;28;8877;-57
2023/10/03 03:36:24;;;;;;;;;10.60;8.60;;;;;22.10;59.03;99171.19;5094817;28;8817;-58
2023/10/03 03:38:52;;;;;;;;;9.40;9.00;;;;;22.17;58.88;99164.69;5095464;28;8833;-58
2023/10/03 03:41:20;;;;;;;;;10.40;9.60;;;;;22.27;58.53;99167.81;5095627;28;8821;-58
2023/10/03 03:43:48;;;;;;;;;9.20;8.00;;;;;22.32;58.41;99176.09;5094008;28;8826;-58
2023/10/03 03:46:18;;;;;;;;;9.20;8.40;;;;;22.32;58.40;99178.81;5113693;28;8852;-58
2023/10/03 03:48:46;;;;;;;;;11.60;10.40;;;;;22.35;58.60;99188.41;5115016;28;8827;-58
2023/10/03 03:51:14;;;;;;;;;11.20;9.60;;;;;22.40;58.19;99175.84;5109000;28;8820;-58
2023/10/03 03:53:43;;;;;;;;;11.80;10.80;;;;;22.42;58.57;99173.81;5095761;28;8829;-60
2023/10/03 03:56:12;;;;;;;;;11.80;9.00;;;;;22.42;58.37;99176.53;5094428;28;8825;-58
2023/10/03 03:58:44;;;;;;;;;13.00;11.60;;;;;22.44;57.95;99170.88;5095018;28;8922;-58
2023/10/03 04:01:14;;;;;;;;;12.00;10.60;;;;;22.46;58.36;99171.50;5094806;28;8875;-57
2023/10/03 04:03:42;;;;;;;;;5.00;4.40;;;;;22.48;58.09;99172.09;5094311;28;9908;-58
2023/10/03 04:06:10;;;;;;;;;9.60;9.60;;;;;22.46;57.97;99174.22;5094351;28;8842;-59
2023/10/03 04:08:38;;;;;;;;;8.80;7.80;;;;;22.43;58.02;99172.75;5086244;28;8878;-58
2023/10/03 04:11:22;;;;;;;;;14.20;12.00;;;;;22.44;58.02;99173.56;5074259;28;8824;-58
2023/10/03 04:13:55;;;;;;;;;12.80;10.60;;;;;22.43;57.71;99175.47;5073996;28;8828;-57
2023/10/03 04:16:26;;;;;;;;;12.20;11.40;;;;;22.43;57.87;99174.63;5074525;28;8852;-57
2023/10/03 04:18:54;;;;;;;;;9.80;8.00;;;;;22.39;58.04;99176.09;5073650;28;8921;-58
2023/10/03 04:21:26;;;;;;;;;10.40;8.60;;;;;22.36;58.31;99171.94;5074189;28;9490;-58
2023/10/03 04:23:55;;;;;;;;;4.60;2.80;;;;;22.34;58.39;99176.75;5074767;28;8832;-57
2023/10/03 04:26:23;;;;;;;;;10.20;8.20;;;;;22.33;58.40;99176.94;5076488;28;8824;-57
2023/10/03 04:28:51;;;;;;;;;9.00;8.80;;;;;22.31;57.88;99179.06;5077793;28;8839;-57
2023/10/03 04:31:18;;;;;;;;;10.40;10.00;;;;;22.28;58.17;99180.31;5077714;28;8897;-58
2023/10/03 04:33:46;;;;;;;;;11.40;9.20;;;;;22.27;58.55;99181.38;5077982;28;8948;-57
2023/10/03 04:36:15;;;;;;;;;8.40;7.00;;;;;22.28;58.44;99193.03;5077734;28;8824;-58
2023/10/03 04:38:43;;;;;;;;;11.80;10.00;;;;;22.27;58.44;99189.50;5077551;28;8840;-58
2023/10/03 04:41:10;;;;;;;;;8.00;7.60;;;;;22.26;58.23;99179.69;5077245;28;8847;-58
2023/10/03 04:43:39;;;;;;;;;11.80;10.60;;;;;22.23;58.38;99190.97;5077172;28;8889;-58
2023/10/03 04:46:08;;;;;;;;;11.60;10.80;;;;;22.23;58.08;99188.25;5093856;28;8907;-57
2023/10/03 04:48:36;;;;;;;;;9.80;9.40;;;;;22.22;58.18;99185.75;5097473;28;8850;-58
2023/10/03 04:51:04;;;;;;;;;9.20;9.20;;;;;22.21;58.30;99189.50;5081488;28;8943;-57
2023/10/03 04:53:32;;;;;;;;;10.00;9.20;;;;;22.20;58.23;99199.53;5082419;28;8806;-58
2023/10/03 04:56:00;;;;;;;;;6.20;5.00;;;;;22.18;58.46;99189.94;5097135;28;8822;-57
2023/10/03 04:58:28;;;;;;;;;9.80;8.40;;;;;22.16;58.32;99192.88;5081901;28;8836;-58
2023/10/03 05:00:56;;;;;;;;;5.40;5.40;;;;;22.17;58.54;99193.72;5077295;28;8882;-57
2023/10/03 05:03:24;;;;;;;;;11.80;11.00;;;;;22.16;58.69;99194.75;5076965;28;8824;-58
2023/10/03 05:05:53;;;;;;;;;14.40;11.20;;;;;22.14;58.35;99194.97;5096817;28;8826;-57
2023/10/03 05:08:21;;;;;;;;;8.80;8.00;;;;;22.13;58.53;99192.47;5097670;28;8825;-60
2023/10/03 05:10:48;;;;;;;;;8.80;8.00;;;;;22.12;58.58;99188.94;5096728;28;8821;-57
2023/10/03 05:13:16;;;;;;;;;11.60;10.60;;;;;22.10;58.46;99190.19;5096664;28;8867;-57
2023/10/03 05:15:44;;;;;;;;;9.00;9.00;;;;;22.06;58.87;99197.06;5097405;28;8813;-57
2023/10/03 05:18:13;;;;;;;;;12.20;11.60;;;;;22.02;59.01;99196.66;5097108;28;8829;-58
2023/10/03 05:20:42;;;;;;;;;7.20;4.40;;;;;21.98;58.86;99194.59;5096606;28;8963;-59
2023/10/03 05:23:10;;;;;;;;;10.60;9.80;;;;;21.94;58.65;99215.06;5096865;28;9506;-58
2023/10/03 05:25:38;;;;;;;;;8.00;6.80;;;;;21.90;58.80;99224.66;5096661;28;8964;-57
2023/10/03 05:28:06;;;;;;;;;6.00;5.80;;;;;21.87;59.47;99217.75;5096591;28;8860;-60
2023/10/03 05:30:35;;;;;;;;;11.80;11.40;;;;;21.86;59.35;99226.13;5096097;28;9533;-58
2023/10/03 05:33:05;;;;;;;;;12.60;12.20;;;;;21.83;59.17;99237.38;5096911;28;8837;-57
2023/10/03 05:35:33;;;;;;;;;11.00;9.00;;;;;21.81;59.20;99236.78;5096221;28;8825;-59
2023/10/03 05:38:01;;;;;;;;;11.20;10.60;;;;;21.77;59.09;99235.50;5096513;28;8906;-57
2023/10/03 05:40:30;;;;;;;;;14.20;11.80;;;;;21.72;59.47;99232.59;5096495;28;8833;-58
2023/10/03 05:42:57;;;;;;;;;12.80;11.40;;;;;21.66;59.32;99239.72;5096263;28;8867;-58
2023/10/03 05:45:25;;;;;;;;;11.20;8.40;;;;;21.64;59.93;99251.78;5096270;28;8852;-57
2023/10/03 05:47:54;;;;;;;;;12.20;11.60;;;;;21.62;60.06;99246.53;5097136;28;8837;-57
2023/10/03 05:50:23;;;;;;;;;13.60;13.20;;;;;21.60;60.08;99245.09;5096345;28;8922;-57
2023/10/03 05:52:51;;;;;;;;;11.80;11.80;;;;;21.61;60.10;99249.47;5099601;28;8893;-58
2023/10/03 05:55:19;;;;;;;;;7.20;7.20;;;;;21.62;59.99;99260.09;5103525;28;8811;-58
2023/10/03 05:57:47;;;;;;;;;11.00;11.00;;;;;21.62;59.89;99259.25;5096007;28;8883;-57
2023/10/03 06:00:16;;;;;;;;;9.20;8.00;;;;;21.61;60.14;99257.59;5095453;28;8975;-58
2023/10/03 06:02:44;;;;;;;;;13.40;12.40;;;;;21.63;60.17;99260.94;5095967;28;8837;-59
2023/10/03 06:05:13;;;;;;;;;13.60;11.60;;;;;21.62;59.83;99267.38;5096094;28;8845;-57
2023/10/03 06:07:42;;;;;;;;;11.80;8.80;;;;;21.63;59.95;99272.59;5095790;28;8957;-57
2023/10/03 06:10:10;;;;;;;;;13.00;11.00;;;;;21.63;59.77;99266.38;5095003;28;8852;-57
2023/10/03 06:12:38;;;;;;;;;9.60;9.00;;;;;21.62;59.94;99264.69;5075383;28;8852;-58
2023/10/03 06:15:06;;;;;;;;;11.60;11.40;;;;;21.62;59.97;99268.22;5075657;28;8817;-58
2023/10/03 06:17:34;;;;;;;;;14.80;12.00;;;;;21.62;59.71;99261.97;5075617;28;8828;-58
2023/10/03 06:20:01;;;;;;;;;8.60;8.00;;;;;21.62;60.23;99261.97;5075298;28;8816;-56
2023/10/03 06:22:29;;;;;;;;;13.00;11.80;;;;;21.61;60.11;99266.56;5075470;28;8858;-59
2023/10/03 06:24:57;;;;;;;;;6.40;6.40;;;;;21.63;59.87;99267.19;5075077;28;8832;-60
2023/10/03 06:27:26;;;;;;;;;12.00;11.80;;;;;21.64;60.28;99263.44;5075950;28;8844;-59
2023/10/03 06:29:55;;;;;;;;;6.20;5.00;;;;;21.66;60.12;99284.94;5075077;28;8824;-57
2023/10/03 06:32:23;;;;;;;;;9.20;7.60;;;;;21.67;60.46;99273.91;5075177;28;8828;-58
2023/10/03 06:34:51;;;;;;;;;18.20;15.40;;;;;21.68;60.01;99272.00;5075503;28;9717;-58
2023/10/03 06:37:18;;;;;;;;;12.40;11.00;;;;;21.69;60.09;99292.66;5074885;28;8824;-57
2023/10/03 06:39:47;;;;;;;;;11.00;8.60;;;;;21.70;60.57;99288.94;5074754;28;8817;-58
2023/10/03 06:42:14;;;;;;;;;7.40;6.60;;;;;21.70;59.94;99297.06;5075693;28;8816;-58
2023/10/03 06:44:45;;;;;;;;;6.80;5.00;;;;;21.70;60.43;99302.47;5074905;28;8958;-57
2023/10/03 06:47:13;;;;;;;;;8.80;7.80;;;;;21.70;60.40;99295.16;5079198;28;9562;-58
2023/10/03 06:49:41;;;;;;;;;9.00;8.20;;;;;21.68;60.80;99299.97;5094825;28;8944;-60
2023/10/03 06:52:09;;;;;;;;;9.00;8.80;;;;;21.69;60.33;99314.34;5095128;28;9565;-57
2023/10/03 06:54:38;;;;;;;;;11.00;9.80;;;;;21.71;60.37;99318.50;5090502;28;8855;-58
2023/10/03 06:57:06;;;;;;;;;8.40;8.40;;;;;21.71;60.62;99313.09;5066437;28;8853;-59
2023/10/03 06:59:35;;;;;;;;;10.80;9.80;;;;;21.72;60.65;99313.94;5056457;28;8844;-60
2023/10/03 07:02:04;;;;;;;;;7.20;7.20;;;;;21.70;60.81;99311.44;5067059;28;8899;-58
2023/10/03 07:04:31;;;;;;;;;8.20;8.00;;;;;21.69;60.85;99292.66;5094783;28;8833;-58
2023/10/03 07:07:03;;;;;;;;;14.20;12.00;;;;;21.68;60.84;99299.13;5094215;28;8861;-59
2023/10/03 07:09:31;;;;;;;;;10.80;10.80;;;;;21.66;60.97;99331.03;5094564;28;8822;-60
2023/10/03 07:12:00;;;;;;;;;8.60;7.20;;;;;21.63;60.72;99315.97;5094538;28;8826;-57
2023/10/03 07:14:28;;;;;;;;;11.20;9.40;;;;;21.62;61.18;99351.41;5094654;28;8857;-58
2023/10/03 07:16:58;;;;;;;;;12.00;9.20;;;;;21.59;61.33;99332.88;5094615;28;8810;-59
2023/10/03 07:19:25;;;;;;;;;6.60;5.00;;;;;21.55;61.65;99337.03;5094264;28;8825;-57
2023/10/03 07:21:55;;;;;;;;;8.60;8.60;;;;;21.54;61.81;99322.66;5095332;28;9685;-59
2023/10/03 07:24:24;;;;;;;;;8.80;8.80;;;;;21.54;61.79;99344.31;5094215;28;8841;-59
2023/10/03 07:26:51;;;;;;;;;11.40;11.40;;;;;21.55;61.71;99372.28;5093957;28;8860;-59
2023/10/03 07:29:20;;;;;;;;;10.00;9.00;;;;;21.53;61.91;99380.59;5095057;28;8865;-60
2023/10/03 07:31:48;;;;;;;;;9.60;9.00;;;;;21.51;62.28;99381.84;5095459;28;9664;-59
2023/10/03 07:34:18;;;;;;;;;12.40;11.00;;;;;21.50;62.08;99363.91;5094124;28;8840;-59
2023/10/03 07:36:46;;;;;;;;;11.00;9.20;;;;;21.49;62.46;99365.78;5093935;28;8820;-59
2023/10/03 07:39:17;;;;;;;;;9.80;9.40;;;;;21.48;62.22;99376.84;5093936;28;8829;-60
2023/10/03 07:41:44;;;;;;;;;8.60;8.60;;;;;21.46;62.69;99357.22;5094031;28;8856;-59
2023/10/03 07:44:12;;;;;;;;;9.80;8.40;;;;;21.42;62.72;99358.69;5094049;28;8833;-60
2023/10/03 07:46:40;;;;;;;;;8.00;8.00;;;;;21.40;62.49;99382.47;5093610;28;8848;-57
2023/10/03 07:49:08;;;;;;;;;10.00;10.00;;;;;21.34;62.93;99377.84;5093085;28;8971;-58
2023/10/03 07:51:35;;;;;;;;;9.80;9.00;;;;;21.31;62.72;99389.06;5093089;28;8851;-58
2023/10/03 07:54:04;;;;;;;;;10.00;10.00;;;;;21.25;62.95;99381.78;5093301;28;9698;-57
2023/10/03 07:56:33;;;;;;;;;10.60;10.00;;;;;21.19;63.02;99374.47;5093374;28;8830;-57
2023/10/03 07:59:02;;;;;;;;;10.20;8.20;;;;;21.14;63.30;99368.81;5093880;28;8856;-57
2023/10/03 08:01:32;;;;;;;;;8.40;7.60;;;;;21.10;63.69;99383.81;5100440;28;8895;-57
2023/10/03 08:04:20;;;;;;;;;12.20;10.40;;;;;21.06;63.73;99361.72;5097847;28;8846;-58
2023/10/03 08:06:48;;;;;;;;;10.00;9.60;;;;;21.01;64.30;99402.09;5095201;28;8822;-58
2023/10/03 08:09:16;;;;;;;;;10.80;8.00;;;;;20.99;63.56;99414.16;5077026;28;8828;-57
2023/10/03 08:11:46;;;;;;;;;12.80;10.00;;;;;20.95;63.87;99402.06;5077376;28;8832;-58
2023/10/03 08:14:17;;;;;;;;;12.00;10.60;;;;;20.93;64.02;99414.97;5077093;28;8905;-57
2023/10/03 08:16:46;;;;;;;;;10.40;10.20;;;;;20.90;64.71;99399.94;5077449;28;8875;-58
2023/10/03 08:19:21;;;;;;;;;8.00;8.00;;;;;20.89;64.31;99397.47;5082059;28;8826;-58
2023/10/03 08:21:50;;;;;;;;;10.60;9.20;;;;;20.94;64.59;99386.84;5096933;28;8829;-57
2023/10/03 08:24:19;;;;;;;;;8.00;8.00;;;;;21.00;64.12;99377.91;5097503;28;8830;-58
2023/10/03 08:26:47;;;;;;;;;11.80;11.80;;;;;21.06;63.95;99401.50;5096541;28;8849;-56
2023/10/03 08:29:21;;;;;;;;;13.00;10.20;;;;;21.11;64.29;99399.84;5096725;28;8844;-57
2023/10/03 08:31:49;;;;;;;;;7.20;7.00;;;;;21.21;63.77;99413.00;5096688;28;8826;-56
2023/10/03 08:34:17;;;;;;;;;5.80;5.80;;;;;21.28;63.66;99408.47;5097212;28;8861;-57
2023/10/03 08:36:45;;;;;;;;;7.00;7.00;;;;;21.34;63.73;99422.00;5097529;28;8834;-58
2023/10/03 08:39:13;;;;;;;;;7.20;7.20;;;;;21.43;63.26;99428.09;5097288;28;8899;-58
2023/10/03 08:41:45;;;;;;;;;10.60;10.20;;;;;21.56;62.96;99422.72;5097211;28;8837;-57
2023/10/03 08:44:13;;;;;;;;;7.80;5.00;;;;;21.74;62.49;99414.88;5097980;28;8960;-58
2023/10/03 08:46:41;;;;;;;;;7.00;5.40;;;;;21.92;62.28;99424.06;5097463;28;8857;-58
2023/10/03 08:49:10;;;;;;;;;7.00;5.80;;;;;21.96;62.49;99429.91;5097071;28;8841;-57
2023/10/03 08:51:38;;;;;;;;;7.40;7.00;;;;;21.89;62.20;99419.06;5096810;28;8940;-57
2023/10/03 08:54:10;;;;;;;;;6.20;5.00;;;;;21.78;62.39;99449.50;5097063;28;8841;-57
2023/10/03 08:56:41;;;;;;;;;7.20;7.00;;;;;21.70;63.04;99436.13;5084479;28;8816;-57
2023/10/03 08:59:09;;;;;;;;;5.40;5.00;;;;;21.65;63.05;99437.75;5076815;28;8828;-57
2023/10/03 09:01:38;;;;;;;;;3.20;3.20;;;;;21.66;63.19;99456.56;5073976;28;8838;-57
2023/10/03 09:04:05;;;;;;;;;4.20;2.40;;;;;21.66;63.26;99434.03;5065831;28;8817;-59
2023/10/03 09:06:38;;;;;;;;;8.60;8.40;;;;;21.65;62.73;99459.44;5095050;28;8829;-58
2023/10/03 09:09:09;;;;;;;;;6.00;5.20;;;;;21.61;62.96;99455.44;5096691;28;8822;-57
2023/10/03 09:11:38;;;;;;;;;4.80;4.00;;;;;21.54;63.56;99471.72;5095939;28;8948;-58
2023/10/03 09:14:06;;;;;;;;;6.60;6.60;;;;;21.43;63.50;99476.88;5096386;28;8954;-59
2023/10/03 09:16:38;;;;;;;;;7.00;6.60;;;;;21.31;63.84;99475.75;5096643;28;8830;-58
2023/10/03 09:19:09;;;;;;;;;5.00;5.00;;;;;21.23;64.38;99465.09;5096527;28;8919;-58
2023/10/03 09:21:37;;;;;;;;;4.20;4.00;;;;;21.22;64.03;99453.44;5096515;28;8813;-59
2023/10/03 09:24:15;;;;;;;;;5.00;5.00;;;;;21.31;63.95;99451.38;5096398;28;8841;-57
2023/10/03 09:26:45;;;;;;;;;2.00;2.00;;;;;21.42;63.73;99458.94;5096292;28;8829;-58
2023/10/03 09:29:18;;;;;;;;;5.40;5.40;;;;;21.52;63.29;99448.56;5096195;28;8912;-57
2023/10/03 09:31:48;;;;;;;;;5.00;4.40;;;;;21.55;63.41;99453.59;5096257;28;8833;-57
2023/10/03 09:34:16;;;;;;;;;5.00;3.20;;;;;21.54;63.38;99435.63;5096339;28;8925;-58
2023/10/03 09:36:44;;;;;;;;;4.60;4.00;;;;;21.51;62.96;99455.00;5096575;28;8833;-59
2023/10/03 09:39:20;;;;;;;;;7.40;5.40;;;;;21.49;63.12;99441.66;5096399;28;8906;-59
2023/10/03 09:41:49;;;;;;;;;5.00;5.00;;;;;21.49;63.21;99470.66;5095980;28;8847;-58
2023/10/03 09:44:19;;;;;;;;;1.20;1.20;;;;;21.49;63.48;99465.22;5096066;28;8869;-57
2023/10/03 09:46:53;;;;;;;;;4.80;4.60;;;;;21.49;63.43;99455.22;5095892;28;8832;-58
2023/10/03 09:49:26;;;;;;;;;4.00;4.00;;;;;21.49;63.31;99459.81;5096085;28;8841;-58
2023/10/03 09:51:54;;;;;;;;;7.00;5.80;;;;;21.44;63.25;99465.00;5095830;28;8957;-58
2023/10/03 09:54:30;;;;;;;;;4.60;4.00;;;;;21.46;63.70;99476.47;5095564;28;8878;-57
2023/10/03 09:57:00;;;;;;;;;5.00;5.00;;;;;21.58;63.21;99472.13;5095784;28;8845;-59
2023/10/03 09:59:32;;;;;;;;;5.00;5.00;;;;;21.66;62.94;99483.69;5095787;28;9463;-59
2023/10/03 10:02:00;;;;;;;;;3.60;3.60;;;;;21.67;62.85;99489.91;5095873;28;8838;-57
2023/10/03 10:04:30;;;;;;;;;5.60;5.60;;;;;21.67;63.23;99488.06;5095389;28;8881;-57
2023/10/03 10:06:59;;;;;;;;;4.60;4.60;;;;;21.71;62.86;99486.59;5111065;28;8800;-60
2023/10/03 10:09:30;;;;;;;;;4.80;4.80;;;;;21.76;62.81;99484.13;5115830;28;8824;-58
2023/10/03 10:11:58;;;;;;;;;2.00;2.00;;;;;21.76;63.01;99497.66;5111332;28;8888;-58
2023/10/03 10:14:28;;;;;;;;;4.00;4.00;;;;;21.74;62.73;99496.19;5096031;28;8825;-57
2023/10/03 10:16:58;;;;;;;;;2.00;2.00;;;;;21.68;62.90;99488.88;5103752;28;9487;-57
2023/10/03 10:19:26;;;;;;;;;9.00;7.00;;;;;21.61;63.07;99485.28;5095327;28;8827;-57
2023/10/03 10:21:59;;;;;;;;;4.00;4.00;;;;;21.54;63.48;99479.00;5095000;28;9583;-60
2023/10/03 10:24:36;;;;;;;;;7.00;7.00;;;;;21.48;63.27;99480.63;5109144;28;8819;-57
2023/10/03 10:27:05;;;;;;;;;7.80;6.60;;;;;21.48;63.61;99490.66;5110577;28;8828;-58
2023/10/03 10:29:35;;;;;;;;;5.00;5.00;;;;;21.51;63.66;99490.25;5100376;28;8834;-60
2023/10/03 10:32:06;;;;;;;;;5.00;4.60;;;;;21.56;63.34;99491.31;5094575;28;8903;-58
2023/10/03 10:34:35;;;;;;;;;7.00;6.60;;;;;21.59;62.87;99482.78;5095398;28;8836;-58
2023/10/03 10:37:05;;;;;;;;;4.40;4.00;;;;;21.61;63.60;99472.56;5094790;28;9525;-60
2023/10/03 10:39:34;;;;;;;;;6.80;6.20;;;;;21.64;63.39;99469.44;5094624;28;8880;-60
2023/10/03 10:42:02;;;;;;;;;4.80;4.60;;;;;21.66;63.25;99471.97;5095137;28;8825;-59
2023/10/03 10:44:31;;;;;;;;;7.60;5.40;;;;;21.75;63.00;99479.75;5094781;28;8802;-58
2023/10/03 10:46:59;;;;;;;;;4.80;4.20;;;;;21.83;63.20;99473.28;5094947;28;8887;-57
2023/10/03 10:49:27;;;;;;;;;5.40;5.40;;;;;21.87;62.72;99466.41;5094282;28;8862;-59
2023/10/03 10:51:55;;;;;;;;;6.20;5.20;;;;;21.87;63.04;99452.84;5094492;28;9519;-58
2023/10/03 10:54:23;;;;;;;;;8.20;7.40;;;;;21.95;62.71;99468.94;5094440;28;8837;-59
2023/10/03 10:56:51;;;;;;;;;5.20;4.20;;;;;21.98;62.60;99454.94;5094360;28;8823;-60
2023/10/03 10:59:20;;;;;;;;;6.00;5.20;;;;;21.89;63.02;99473.31;5094291;28;8952;-59
2023/10/03 11:01:48;;;;;;;;;5.00;5.00;;;;;21.78;63.04;99470.38;5094383;28;8965;-60
2023/10/03 11:04:16;;;;;;;;;4.40;4.00;;;;;21.66;63.01;99477.41;5094298;28;8814;-58
2023/10/03 11:06:44;;;;;;;;;4.60;4.00;;;;;21.49;63.90;99485.03;5093923;28;8825;-60
2023/10/03 11:09:12;;;;;;;;;4.00;4.00;;;;;21.31;64.03;99501.00;5094242;28;8864;-59
2023/10/03 11:11:41;;;;;;;;;4.00;4.00;;;;;21.12;64.91;99503.59;5094087;28;8853;-58
2023/10/03 11:14:09;;;;;;;;;4.00;4.00;;;;;20.86;65.06;99533.16;5094656;28;8971;-60
2023/10/03 11:16:38;;;;;;;;;2.00;2.00;;;;;20.22;66.77;99561.34;5094851;28;8830;-60
2023/10/03 11:19:06;;;;;;;;;3.80;3.60;;;;;19.33;69.24;99555.44;5094255;28;8834;-58
2023/10/03 11:21:34;;;;;;;;;4.00;3.80;;;;;18.74;70.29;99556.38;5093878;28;8833;-59
2023/10/03 11:24:01;;;;;;;;;5.00;4.00;;;;;18.33;71.09;99555.06;5094186;28;8847;-58
2023/10/03 11:26:29;;;;;;;;;7.40;6.40;;;;;18.05;72.07;99564.66;5097046;28;8946;-59
2023/10/03 11:28:59;;;;;;;;;4.00;3.20;;;;;17.85;72.35;99568.00;5110575;28;8816;-55
2023/10/03 11:31:27;;;;;;;;;8.20;7.40;;;;;17.73;73.01;99569.41;5093993;28;8903;-60
2023/10/03 11:33:59;;;;;;;;;1.40;1.00;;;;;17.63;72.94;99575.00;5106958;28;8812;-58
2023/10/03 11:36:27;;;;;;;;;7.00;7.00;;;;;17.55;73.02;99564.25;5118791;28;8820;-58
2023/10/03 11:38:56;;;;;;;;;7.00;4.00;;;;;17.50;72.92;99553.19;5101311;28;8833;-56
2023/10/03 11:41:24;;;;;;;;;9.80;8.60;;;;;17.50;73.06;99528.13;5099361;28;8810;-58